sensor_id;sensor_type;location;lat;lon;timestamp;pressure;altitude;pressure_sealevel;temperature;humidity
58759;BME280;46777;47.482;19.054;2022-08-11T00:01:31;100953.34;;;23.41;40.47
58759;BME280;46777;47.482;19.054;2022-08-11T00:04:17;100958.53;;;23.25;41.08
58759;BME280;46777;47.482;19.054;2022-08-11T00:07:03;100953.19;;;23.25;40.96
58759;BME280;46777;47.482;19.054;2022-08-11T00:09:50;100951.03;;;23.14;40.86
58759;BME280;46777;47.482;19.054;2022-08-11T00:12:35;100957.97;;;23.18;40.75
58759;BME280;46777;47.482;19.054;2022-08-11T00:15:21;100953.34;;;23.22;41.25
58759;BME280;46777;47.482;19.054;2022-08-11T00:18:06;100943.19;;;23.09;41.36
58759;BME280;46777;47.482;19.054;2022-08-11T00:20:57;100942.28;;;23.10;40.98
58759;BME280;46777;47.482;19.054;2022-08-11T00:23:46;100947.63;;;23.10;41.20
58759;BME280;46777;47.482;19.054;2022-08-11T00:26:31;100943.06;;;23.12;41.04
58759;BME280;46777;47.482;19.054;2022-08-11T00:29:17;100940.00;;;23.01;41.28
58759;BME280;46777;47.482;19.054;2022-08-11T00:32:04;100942.91;;;23.15;41.12
58759;BME280;46777;47.482;19.054;2022-08-11T00:34:50;100933.31;;;23.67;40.38
58759;BME280;46777;47.482;19.054;2022-08-11T00:37:37;100940.19;;;22.96;41.81
58759;BME280;46777;47.482;19.054;2022-08-11T00:40:32;100940.41;;;22.92;41.85
58759;BME280;46777;47.482;19.054;2022-08-11T00:43:46;100940.00;;;23.01;41.50
58759;BME280;46777;47.482;19.054;2022-08-11T00:49:32;100942.53;;;23.04;42.32
58759;BME280;46777;47.482;19.054;2022-08-11T00:52:49;100932.25;;;22.95;42.80
58759;BME280;46777;47.482;19.054;2022-08-11T01:01:57;100936.97;;;22.90;42.65
58759;BME280;46777;47.482;19.054;2022-08-11T01:10:53;100946.34;;;22.79;42.94
58759;BME280;46777;47.482;19.054;2022-08-11T01:17:08;100937.53;;;22.77;43.16
58759;BME280;46777;47.482;19.054;2022-08-11T01:23:24;100928.97;;;22.69;43.47
58759;BME280;46777;47.482;19.054;2022-08-11T01:49:24;100923.69;;;23.63;41.57
58759;BME280;46777;47.482;19.054;2022-08-11T01:52:45;100922.50;;;23.32;42.19
58759;BME280;46777;47.482;19.054;2022-08-11T01:59:24;100920.88;;;22.71;44.02
58759;BME280;46777;47.482;19.054;2022-08-11T02:08:47;100916.47;;;22.49;45.71
58759;BME280;46777;47.482;19.054;2022-08-11T02:11:35;100908.41;;;22.51;46.66
58759;BME280;46777;47.482;19.054;2022-08-11T02:14:33;100913.75;;;22.51;46.54
58759;BME280;46777;47.482;19.054;2022-08-11T02:17:37;100924.59;;;22.27;46.76
58759;BME280;46777;47.482;19.054;2022-08-11T02:20:27;100913.06;;;22.25;46.49
58759;BME280;46777;47.482;19.054;2022-08-11T02:23:54;100914.44;;;22.35;46.99
58759;BME280;46777;47.482;19.054;2022-08-11T02:26:55;100914.56;;;22.32;46.25
58759;BME280;46777;47.482;19.054;2022-08-11T02:30:00;100909.16;;;22.34;46.44
58759;BME280;46777;47.482;19.054;2022-08-11T02:32:54;100910.00;;;22.34;45.86
58759;BME280;46777;47.482;19.054;2022-08-11T02:36:24;100911.06;;;22.30;45.79
58759;BME280;46777;47.482;19.054;2022-08-11T02:39:19;100903.31;;;22.44;45.38
58759;BME280;46777;47.482;19.054;2022-08-11T02:42:15;100901.75;;;22.40;45.33
58759;BME280;46777;47.482;19.054;2022-08-11T02:45:16;100903.72;;;22.35;45.83
58759;BME280;46777;47.482;19.054;2022-08-11T02:52:04;100898.53;;;22.32;45.57
58759;BME280;46777;47.482;19.054;2022-08-11T02:55:21;100897.66;;;22.32;46.03
58759;BME280;46777;47.482;19.054;2022-08-11T02:58:46;100897.31;;;22.39;45.96
58759;BME280;46777;47.482;19.054;2022-08-11T03:01:58;100898.16;;;22.19;46.35
58759;BME280;46777;47.482;19.054;2022-08-11T03:08:12;100890.50;;;22.32;45.81
58759;BME280;46777;47.482;19.054;2022-08-11T03:11:04;100903.72;;;22.14;46.34
58759;BME280;46777;47.482;19.054;2022-08-11T03:14:16;100906.38;;;22.14;46.98
58759;BME280;46777;47.482;19.054;2022-08-11T03:26:29;100906.91;;;22.02;46.76
58759;BME280;46777;47.482;19.054;2022-08-11T03:29:39;100906.78;;;22.05;46.75
58759;BME280;46777;47.482;19.054;2022-08-11T03:32:40;100904.97;;;22.06;46.36
58759;BME280;46777;47.482;19.054;2022-08-11T03:35:33;100906.38;;;22.14;46.30
58759;BME280;46777;47.482;19.054;2022-08-11T03:38:22;100910.38;;;22.04;46.60
58759;BME280;46777;47.482;19.054;2022-08-11T03:54:05;100924.03;;;22.19;46.36
58759;BME280;46777;47.482;19.054;2022-08-11T04:04:14;100920.56;;;22.17;45.95
58759;BME280;46777;47.482;19.054;2022-08-11T04:29:55;100912.72;;;22.93;44.44
58759;BME280;46777;47.482;19.054;2022-08-11T04:40:02;100932.84;;;22.21;45.79
58759;BME280;46777;47.482;19.054;2022-08-11T04:46:32;100924.88;;;22.19;46.10
58759;BME280;46777;47.482;19.054;2022-08-11T04:53:28;100931.84;;;22.23;45.24
58759;BME280;46777;47.482;19.054;2022-08-11T04:56:37;100931.34;;;22.36;45.43
58759;BME280;46777;47.482;19.054;2022-08-11T05:06:27;100931.47;;;22.33;44.61
58759;BME280;46777;47.482;19.054;2022-08-11T05:09:27;100926.25;;;23.09;43.24
58759;BME280;46777;47.482;19.054;2022-08-11T05:15:17;100935.16;;;22.51;44.28
58759;BME280;46777;47.482;19.054;2022-08-11T05:18:23;100942.09;;;22.55;44.75
58759;BME280;46777;47.482;19.054;2022-08-11T05:21:27;100939.56;;;22.52;44.83
58759;BME280;46777;47.482;19.054;2022-08-11T05:24:41;100947.34;;;23.16;43.55
58759;BME280;46777;47.482;19.054;2022-08-11T05:30:57;100945.00;;;23.47;42.60
58759;BME280;46777;47.482;19.054;2022-08-11T05:40:08;100949.28;;;23.32;42.93
58759;BME280;46777;47.482;19.054;2022-08-11T05:43:12;100945.91;;;23.65;42.23
58759;BME280;46777;47.482;19.054;2022-08-11T05:46:17;100944.81;;;23.13;43.14
58759;BME280;46777;47.482;19.054;2022-08-11T05:49:22;100948.84;;;23.03;43.76
58759;BME280;46777;47.482;19.054;2022-08-11T05:52:27;100949.66;;;22.84;43.98
58759;BME280;46777;47.482;19.054;2022-08-11T05:55:32;100955.78;;;22.88;43.55
58759;BME280;46777;47.482;19.054;2022-08-11T05:58:38;100947.72;;;24.01;41.73
58759;BME280;46777;47.482;19.054;2022-08-11T06:01:27;100957.84;;;23.21;42.89
58759;BME280;46777;47.482;19.054;2022-08-11T06:04:18;100950.31;;;23.10;43.22
58759;BME280;46777;47.482;19.054;2022-08-11T06:07:06;100951.19;;;23.30;43.24
58759;BME280;46777;47.482;19.054;2022-08-11T06:09:52;100943.41;;;25.16;39.63
58759;BME280;46777;47.482;19.054;2022-08-11T06:12:39;100950.00;;;23.55;42.86
58759;BME280;46777;47.482;19.054;2022-08-11T06:15:26;100950.56;;;23.42;42.99
58759;BME280;46777;47.482;19.054;2022-08-11T06:18:12;100943.50;;;23.41;41.85
58759;BME280;46777;47.482;19.054;2022-08-11T06:20:57;100952.31;;;23.43;42.58
58759;BME280;46777;47.482;19.054;2022-08-11T06:23:44;100944.56;;;23.56;41.71
58759;BME280;46777;47.482;19.054;2022-08-11T06:26:29;100947.19;;;24.29;40.66
58759;BME280;46777;47.482;19.054;2022-08-11T06:29:15;100939.81;;;24.50;40.45
58759;BME280;46777;47.482;19.054;2022-08-11T06:32:02;100939.81;;;24.68;40.18
58759;BME280;46777;47.482;19.054;2022-08-11T06:35:02;100941.38;;;24.54;40.24
58759;BME280;46777;47.482;19.054;2022-08-11T06:38:11;100941.47;;;24.53;40.21
58759;BME280;46777;47.482;19.054;2022-08-11T06:41:08;100940.13;;;25.11;38.82
58759;BME280;46777;47.482;19.054;2022-08-11T06:47:08;100936.28;;;24.83;39.64
58759;BME280;46777;47.482;19.054;2022-08-11T06:49:55;100938.88;;;24.69;40.19
58759;BME280;46777;47.482;19.054;2022-08-11T06:53:05;100945.50;;;24.62;39.43
58759;BME280;46777;47.482;19.054;2022-08-11T06:55:50;100939.81;;;24.33;40.92
58759;BME280;46777;47.482;19.054;2022-08-11T06:58:55;100940.63;;;24.00;40.98
58759;BME280;46777;47.482;19.054;2022-08-11T07:02:15;100938.59;;;24.05;41.02
58759;BME280;46777;47.482;19.054;2022-08-11T07:05:21;100938.28;;;24.11;40.95
58759;BME280;46777;47.482;19.054;2022-08-11T07:15:17;100936.78;;;24.23;40.86
58759;BME280;46777;47.482;19.054;2022-08-11T07:18:26;100931.81;;;24.84;39.26
58759;BME280;46777;47.482;19.054;2022-08-11T07:21:33;100932.19;;;25.57;37.28
58759;BME280;46777;47.482;19.054;2022-08-11T07:24:41;100928.66;;;25.87;36.15
58759;BME280;46777;47.482;19.054;2022-08-11T07:27:51;100925.34;;;25.98;35.90
58759;BME280;46777;47.482;19.054;2022-08-11T07:31:10;100927.25;;;26.41;35.49
58759;BME280;46777;47.482;19.054;2022-08-11T07:34:33;100922.28;;;26.63;34.64
58759;BME280;46777;47.482;19.054;2022-08-11T07:37:19;100918.81;;;26.61;34.85
58759;BME280;46777;47.482;19.054;2022-08-11T07:40:06;100928.41;;;26.22;36.27
58759;BME280;46777;47.482;19.054;2022-08-11T07:42:52;100930.56;;;26.46;36.20
58759;BME280;46777;47.482;19.054;2022-08-11T07:45:43;100923.44;;;26.45;36.00
58759;BME280;46777;47.482;19.054;2022-08-11T07:48:48;100916.91;;;26.63;35.21
58759;BME280;46777;47.482;19.054;2022-08-11T07:51:53;100915.13;;;26.78;35.02
58759;BME280;46777;47.482;19.054;2022-08-11T07:54:59;100912.06;;;27.53;32.17
58759;BME280;46777;47.482;19.054;2022-08-11T07:57:45;100907.69;;;26.53;33.25
58759;BME280;46777;47.482;19.054;2022-08-11T08:00:52;100912.16;;;25.47;36.01
58759;BME280;46777;47.482;19.054;2022-08-11T08:03:58;100909.25;;;25.96;34.61
58759;BME280;46777;47.482;19.054;2022-08-11T08:07:03;100913.06;;;25.78;35.34
58759;BME280;46777;47.482;19.054;2022-08-11T08:10:08;100909.22;;;26.43;34.53
58759;BME280;46777;47.482;19.054;2022-08-11T08:13:12;100899.97;;;25.72;35.85
58759;BME280;46777;47.482;19.054;2022-08-11T08:16:16;100902.59;;;26.04;35.24
58759;BME280;46777;47.482;19.054;2022-08-11T08:19:20;100899.19;;;26.30;35.07
58759;BME280;46777;47.482;19.054;2022-08-11T08:22:05;100898.28;;;27.16;33.48
58759;BME280;46777;47.482;19.054;2022-08-11T08:24:51;100902.25;;;27.80;31.69
58759;BME280;46777;47.482;19.054;2022-08-11T08:27:38;100898.06;;;27.61;31.91
58759;BME280;46777;47.482;19.054;2022-08-11T08:30:24;100891.88;;;27.73;31.91
58759;BME280;46777;47.482;19.054;2022-08-11T08:33:30;100884.84;;;28.50;30.73
58759;BME280;46777;47.482;19.054;2022-08-11T08:36:16;100888.97;;;28.30;31.47
58759;BME280;46777;47.482;19.054;2022-08-11T08:39:03;100883.53;;;28.42;30.95
58759;BME280;46777;47.482;19.054;2022-08-11T08:41:51;100879.69;;;27.81;32.47
58759;BME280;46777;47.482;19.054;2022-08-11T08:45:01;100882.41;;;27.53;32.91
58759;BME280;46777;47.482;19.054;2022-08-11T08:47:53;100883.97;;;28.11;32.41
58759;BME280;46777;47.482;19.054;2022-08-11T08:50:47;100870.50;;;27.16;33.55
58759;BME280;46777;47.482;19.054;2022-08-11T08:53:53;100872.63;;;27.52;33.01
58759;BME280;46777;47.482;19.054;2022-08-11T08:56:39;100874.66;;;28.15;32.19
58759;BME280;46777;47.482;19.054;2022-08-11T08:59:27;100869.81;;;27.54;33.06
58759;BME280;46777;47.482;19.054;2022-08-11T09:02:12;100865.31;;;27.80;32.46
58759;BME280;46777;47.482;19.054;2022-08-11T09:04:57;100872.50;;;27.94;32.65
58759;BME280;46777;47.482;19.054;2022-08-11T09:07:44;100863.25;;;28.11;31.31
58759;BME280;46777;47.482;19.054;2022-08-11T09:10:31;100857.41;;;28.30;31.61
58759;BME280;46777;47.482;19.054;2022-08-11T09:13:16;100854.38;;;28.48;30.29
58759;BME280;46777;47.482;19.054;2022-08-11T09:16:04;100845.13;;;28.89;29.63
58759;BME280;46777;47.482;19.054;2022-08-11T09:18:50;100840.25;;;28.94;29.31
58759;BME280;46777;47.482;19.054;2022-08-11T09:21:40;100840.34;;;29.05;27.74
58759;BME280;46777;47.482;19.054;2022-08-11T09:24:25;100840.16;;;29.20;27.67
58759;BME280;46777;47.482;19.054;2022-08-11T09:27:28;100832.53;;;29.38;26.78
58759;BME280;46777;47.482;19.054;2022-08-11T09:30:13;100833.28;;;29.75;26.11
58759;BME280;46777;47.482;19.054;2022-08-11T09:33:00;100826.75;;;30.25;25.79
58759;BME280;46777;47.482;19.054;2022-08-11T09:35:46;100831.50;;;29.63;25.27
58759;BME280;46777;47.482;19.054;2022-08-11T09:38:31;100824.41;;;31.32;24.18
58759;BME280;46777;47.482;19.054;2022-08-11T09:41:35;100823.25;;;32.09;24.39
58759;BME280;46777;47.482;19.054;2022-08-11T09:44:21;100824.16;;;31.24;23.34
58759;BME280;46777;47.482;19.054;2022-08-11T09:47:27;100810.50;;;30.47;23.81
58759;BME280;46777;47.482;19.054;2022-08-11T09:50:14;100816.25;;;29.86;25.05
58759;BME280;46777;47.482;19.054;2022-08-11T09:53:00;100817.78;;;29.77;25.89
58759;BME280;46777;47.482;19.054;2022-08-11T09:55:49;100818.94;;;29.51;26.23
58759;BME280;46777;47.482;19.054;2022-08-11T09:58:35;100809.91;;;30.21;24.99
58759;BME280;46777;47.482;19.054;2022-08-11T10:01:23;100816.47;;;29.83;26.08
58759;BME280;46777;47.482;19.054;2022-08-11T10:04:13;100816.25;;;30.09;26.48
58759;BME280;46777;47.482;19.054;2022-08-11T10:06:59;100810.09;;;30.18;26.44
58759;BME280;46777;47.482;19.054;2022-08-11T10:09:56;100813.91;;;29.81;27.48
58759;BME280;46777;47.482;19.054;2022-08-11T10:12:50;100808.06;;;29.39;27.87
58759;BME280;46777;47.482;19.054;2022-08-11T10:15:40;100799.41;;;31.49;25.58
58759;BME280;46777;47.482;19.054;2022-08-11T10:18:34;100805.66;;;31.61;24.88
58759;BME280;46777;47.482;19.054;2022-08-11T10:21:38;100800.25;;;31.29;25.62
58759;BME280;46777;47.482;19.054;2022-08-11T10:24:24;100794.59;;;32.16;24.79
58759;BME280;46777;47.482;19.054;2022-08-11T10:27:28;100788.59;;;32.22;23.73
58759;BME280;46777;47.482;19.054;2022-08-11T10:30:13;100775.53;;;32.78;22.80
58759;BME280;46777;47.482;19.054;2022-08-11T10:33:17;100767.41;;;32.57;24.78
58759;BME280;46777;47.482;19.054;2022-08-11T10:36:21;100778.56;;;32.44;23.92
58759;BME280;46777;47.482;19.054;2022-08-11T10:39:06;100771.44;;;32.63;23.83
58759;BME280;46777;47.482;19.054;2022-08-11T10:41:51;100772.50;;;33.69;22.59
58759;BME280;46777;47.482;19.054;2022-08-11T10:44:57;100773.50;;;31.78;23.76
58759;BME280;46777;47.482;19.054;2022-08-11T10:47:44;100765.81;;;31.62;24.01
58759;BME280;46777;47.482;19.054;2022-08-11T10:50:30;100764.41;;;31.88;23.05
58759;BME280;46777;47.482;19.054;2022-08-11T10:53:35;100767.03;;;31.15;23.97
58759;BME280;46777;47.482;19.054;2022-08-11T10:56:40;100767.16;;;31.35;23.54
58759;BME280;46777;47.482;19.054;2022-08-11T10:59:44;100764.75;;;31.95;23.39
58759;BME280;46777;47.482;19.054;2022-08-11T11:02:31;100760.03;;;33.66;21.29
58759;BME280;46777;47.482;19.054;2022-08-11T11:05:22;100749.13;;;34.97;21.17
58759;BME280;46777;47.482;19.054;2022-08-11T11:08:14;100746.97;;;34.27;20.60
58759;BME280;46777;47.482;19.054;2022-08-11T11:11:19;100740.19;;;33.46;21.55
58759;BME280;46777;47.482;19.054;2022-08-11T11:14:05;100740.84;;;35.25;19.78
58759;BME280;46777;47.482;19.054;2022-08-11T11:17:10;100720.28;;;42.44;14.44
58759;BME280;46777;47.482;19.054;2022-08-11T11:20:18;100718.38;;;39.18;15.49
58759;BME280;46777;47.482;19.054;2022-08-11T11:23:26;100707.28;;;40.83;13.91
58759;BME280;46777;47.482;19.054;2022-08-11T11:30:14;100714.44;;;39.36;16.17
58759;BME280;46777;47.482;19.054;2022-08-11T11:36:30;100700.00;;;40.02;14.05
58759;BME280;46777;47.482;19.054;2022-08-11T11:39:24;100697.84;;;39.29;13.82
58759;BME280;46777;47.482;19.054;2022-08-11T11:42:10;100699.06;;;35.25;16.45
58759;BME280;46777;47.482;19.054;2022-08-11T11:44:56;100710.41;;;33.45;18.95
58759;BME280;46777;47.482;19.054;2022-08-11T11:47:41;100700.63;;;33.52;19.63
58759;BME280;46777;47.482;19.054;2022-08-11T11:50:34;100702.13;;;33.84;19.40
58759;BME280;46777;47.482;19.054;2022-08-11T11:53:19;100707.47;;;32.58;21.08
58759;BME280;46777;47.482;19.054;2022-08-11T11:56:05;100697.63;;;32.57;21.77
58759;BME280;46777;47.482;19.054;2022-08-11T11:58:51;100698.03;;;32.43;21.41
58759;BME280;46777;47.482;19.054;2022-08-11T12:01:56;100697.91;;;32.54;20.88
58759;BME280;46777;47.482;19.054;2022-08-11T12:04:43;100698.00;;;31.92;21.81
58759;BME280;46777;47.482;19.054;2022-08-11T12:07:29;100696.09;;;31.83;22.04
58759;BME280;46777;47.482;19.054;2022-08-11T12:10:33;100681.78;;;32.12;22.51
58759;BME280;46777;47.482;19.054;2022-08-11T12:13:18;100678.97;;;32.33;20.57
58759;BME280;46777;47.482;19.054;2022-08-11T12:16:23;100676.91;;;33.25;20.15
58759;BME280;46777;47.482;19.054;2022-08-11T12:19:13;100661.53;;;37.22;17.70
58759;BME280;46777;47.482;19.054;2022-08-11T12:21:59;100663.78;;;39.98;15.39
58759;BME280;46777;47.482;19.054;2022-08-11T12:25:04;100660.78;;;38.64;16.00
58759;BME280;46777;47.482;19.054;2022-08-11T12:28:08;100661.00;;;37.19;17.90
58759;BME280;46777;47.482;19.054;2022-08-11T12:30:53;100661.69;;;37.12;16.73
58759;BME280;46777;47.482;19.054;2022-08-11T12:33:38;100653.16;;;37.07;16.71
58759;BME280;46777;47.482;19.054;2022-08-11T12:36:28;100647.72;;;41.53;14.06
58759;BME280;46777;47.482;19.054;2022-08-11T12:39:20;100641.41;;;41.31;13.22
58759;BME280;46777;47.482;19.054;2022-08-11T12:42:26;100647.00;;;37.30;16.87
58759;BME280;46777;47.482;19.054;2022-08-11T12:45:43;100639.41;;;37.48;16.96
58759;BME280;46777;47.482;19.054;2022-08-11T12:48:34;100645.00;;;35.81;18.24
58759;BME280;46777;47.482;19.054;2022-08-11T12:51:41;100634.69;;;37.09;17.37
58759;BME280;46777;47.482;19.054;2022-08-11T12:54:52;100645.03;;;35.54;18.72
58759;BME280;46777;47.482;19.054;2022-08-11T12:57:44;100636.25;;;37.76;17.13
58759;BME280;46777;47.482;19.054;2022-08-11T13:00:47;100637.09;;;34.91;19.88
58759;BME280;46777;47.482;19.054;2022-08-11T13:03:53;100621.19;;;35.99;17.62
58759;BME280;46777;47.482;19.054;2022-08-11T13:06:57;100623.28;;;35.71;18.66
58759;BME280;46777;47.482;19.054;2022-08-11T13:09:43;100617.91;;;36.47;17.61
58759;BME280;46777;47.482;19.054;2022-08-11T13:12:29;100625.06;;;35.80;17.96
58759;BME280;46777;47.482;19.054;2022-08-11T13:15:33;100612.78;;;40.11;15.36
58759;BME280;46777;47.482;19.054;2022-08-11T13:18:22;100607.38;;;41.39;14.40
58759;BME280;46777;47.482;19.054;2022-08-11T13:21:06;100593.22;;;39.84;14.55
58759;BME280;46777;47.482;19.054;2022-08-11T13:23:53;100605.44;;;36.44;18.03
58759;BME280;46777;47.482;19.054;2022-08-11T13:26:41;100615.81;;;35.47;19.31
58759;BME280;46777;47.482;19.054;2022-08-11T13:29:27;100613.78;;;34.60;21.01
58759;BME280;46777;47.482;19.054;2022-08-11T13:32:13;100607.03;;;35.09;19.94
58759;BME280;46777;47.482;19.054;2022-08-11T13:34:59;100613.47;;;34.99;20.20
58759;BME280;46777;47.482;19.054;2022-08-11T13:37:46;100607.19;;;34.81;20.53
58759;BME280;46777;47.482;19.054;2022-08-11T13:40:32;100604.44;;;34.45;21.42
58759;BME280;46777;47.482;19.054;2022-08-11T13:43:18;100596.25;;;34.09;21.77
58759;BME280;46777;47.482;19.054;2022-08-11T13:46:03;100601.28;;;32.01;23.87
58759;BME280;46777;47.482;19.054;2022-08-11T13:49:06;100602.66;;;32.95;22.96
58759;BME280;46777;47.482;19.054;2022-08-11T13:51:54;100596.56;;;31.94;23.83
58759;BME280;46777;47.482;19.054;2022-08-11T13:54:40;100597.97;;;31.98;24.38
58759;BME280;46777;47.482;19.054;2022-08-11T13:57:30;100603.63;;;32.25;24.94
58759;BME280;46777;47.482;19.054;2022-08-11T14:00:17;100598.66;;;32.31;23.98
58759;BME280;46777;47.482;19.054;2022-08-11T14:03:04;100591.50;;;32.59;23.74
58759;BME280;46777;47.482;19.054;2022-08-11T14:05:53;100588.56;;;33.19;22.90
58759;BME280;46777;47.482;19.054;2022-08-11T14:08:41;100593.00;;;32.03;24.67
58759;BME280;46777;47.482;19.054;2022-08-11T14:11:27;100595.50;;;32.65;23.93
58759;BME280;46777;47.482;19.054;2022-08-11T14:14:32;100584.25;;;32.69;23.79
58759;BME280;46777;47.482;19.054;2022-08-11T14:17:19;100586.91;;;32.99;23.03
58759;BME280;46777;47.482;19.054;2022-08-11T14:20:07;100581.91;;;32.25;23.91
58759;BME280;46777;47.482;19.054;2022-08-11T14:22:53;100583.53;;;31.87;24.89
58759;BME280;46777;47.482;19.054;2022-08-11T14:25:40;100581.81;;;31.86;23.78
58759;BME280;46777;47.482;19.054;2022-08-11T14:28:45;100577.59;;;33.11;23.04
58759;BME280;46777;47.482;19.054;2022-08-11T14:31:32;100591.81;;;32.75;23.69
58759;BME280;46777;47.482;19.054;2022-08-11T14:34:21;100588.22;;;32.85;23.74
58759;BME280;46777;47.482;19.054;2022-08-11T14:37:13;100587.91;;;32.58;22.68
58759;BME280;46777;47.482;19.054;2022-08-11T14:40:00;100578.34;;;32.54;22.31
58759;BME280;46777;47.482;19.054;2022-08-11T14:43:05;100573.28;;;32.01;23.03
58759;BME280;46777;47.482;19.054;2022-08-11T14:46:09;100576.75;;;32.22;23.16
58759;BME280;46777;47.482;19.054;2022-08-11T14:49:13;100574.63;;;31.66;23.70
58759;BME280;46777;47.482;19.054;2022-08-11T14:51:58;100581.94;;;31.13;24.52
58759;BME280;46777;47.482;19.054;2022-08-11T14:54:47;100572.44;;;31.29;24.33
58759;BME280;46777;47.482;19.054;2022-08-11T14:57:51;100575.72;;;31.01;24.96
58759;BME280;46777;47.482;19.054;2022-08-11T15:00:38;100574.59;;;31.04;24.38
58759;BME280;46777;47.482;19.054;2022-08-11T15:03:26;100567.00;;;31.29;24.24
58759;BME280;46777;47.482;19.054;2022-08-11T15:06:11;100580.50;;;30.98;25.03
58759;BME280;46777;47.482;19.054;2022-08-11T15:08:57;100574.31;;;30.65;24.34
58759;BME280;46777;47.482;19.054;2022-08-11T15:11:42;100583.63;;;30.93;24.49
58759;BME280;46777;47.482;19.054;2022-08-11T15:14:47;100576.72;;;30.47;25.40
58759;BME280;46777;47.482;19.054;2022-08-11T15:17:53;100578.16;;;30.19;25.44
58759;BME280;46777;47.482;19.054;2022-08-11T15:20:39;100577.97;;;29.99;25.88
58759;BME280;46777;47.482;19.054;2022-08-11T15:23:42;100580.63;;;30.10;25.37
58759;BME280;46777;47.482;19.054;2022-08-11T15:26:46;100581.72;;;30.19;25.80
58759;BME280;46777;47.482;19.054;2022-08-11T15:29:53;100576.84;;;30.34;25.09
58759;BME280;46777;47.482;19.054;2022-08-11T15:33:00;100576.84;;;29.68;25.59
58759;BME280;46777;47.482;19.054;2022-08-11T15:36:07;100571.00;;;30.17;25.28
58759;BME280;46777;47.482;19.054;2022-08-11T15:39:43;100569.28;;;30.16;26.00
58759;BME280;46777;47.482;19.054;2022-08-11T15:45:57;100572.78;;;29.73;25.30
58759;BME280;46777;47.482;19.054;2022-08-11T15:48:57;100565.44;;;29.64;26.54
58759;BME280;46777;47.482;19.054;2022-08-11T15:52:07;100562.00;;;29.51;26.42
58759;BME280;46777;47.482;19.054;2022-08-11T15:54:53;100555.63;;;29.40;26.32
58759;BME280;46777;47.482;19.054;2022-08-11T15:57:39;100562.72;;;29.64;26.19
58759;BME280;46777;47.482;19.054;2022-08-11T16:00:44;100560.53;;;29.24;27.38
58759;BME280;46777;47.482;19.054;2022-08-11T16:03:51;100554.63;;;29.19;27.26
58759;BME280;46777;47.482;19.054;2022-08-11T16:07:06;100559.00;;;28.97;27.01
58759;BME280;46777;47.482;19.054;2022-08-11T16:10:00;100561.97;;;29.05;27.04
58759;BME280;46777;47.482;19.054;2022-08-11T16:12:51;100562.91;;;28.93;27.57
58759;BME280;46777;47.482;19.054;2022-08-11T16:16:04;100559.63;;;28.65;28.26
58759;BME280;46777;47.482;19.054;2022-08-11T16:19:00;100555.25;;;28.75;28.44
58759;BME280;46777;47.482;19.054;2022-08-11T16:21:48;100562.88;;;28.70;28.81
58759;BME280;46777;47.482;19.054;2022-08-11T16:24:37;100556.88;;;28.54;29.07
58759;BME280;46777;47.482;19.054;2022-08-11T16:27:24;100563.00;;;28.45;29.06
58759;BME280;46777;47.482;19.054;2022-08-11T16:30:10;100559.22;;;28.23;28.93
58759;BME280;46777;47.482;19.054;2022-08-11T16:32:55;100558.41;;;28.10;29.43
58759;BME280;46777;47.482;19.054;2022-08-11T16:35:43;100556.81;;;28.31;29.55
58759;BME280;46777;47.482;19.054;2022-08-11T16:38:47;100548.00;;;28.40;29.35
58759;BME280;46777;47.482;19.054;2022-08-11T16:41:34;100557.91;;;28.29;29.67
58759;BME280;46777;47.482;19.054;2022-08-11T16:44:38;100555.72;;;28.10;29.77
58759;BME280;46777;47.482;19.054;2022-08-11T16:47:43;100553.09;;;28.32;29.96
58759;BME280;46777;47.482;19.054;2022-08-11T16:50:30;100562.53;;;28.27;29.88
58759;BME280;46777;47.482;19.054;2022-08-11T16:53:15;100555.78;;;28.21;30.20
58759;BME280;46777;47.482;19.054;2022-08-11T16:56:04;100560.19;;;28.57;29.42
58759;BME280;46777;47.482;19.054;2022-08-11T16:58:55;100561.22;;;28.32;29.85
58759;BME280;46777;47.482;19.054;2022-08-11T17:02:04;100556.44;;;28.12;29.94
58759;BME280;46777;47.482;19.054;2022-08-11T17:04:51;100566.16;;;28.14;29.79
58759;BME280;46777;47.482;19.054;2022-08-11T17:07:57;100562.88;;;27.85;29.95
58759;BME280;46777;47.482;19.054;2022-08-11T17:11:03;100557.13;;;28.02;29.89
58759;BME280;46777;47.482;19.054;2022-08-11T17:14:15;100562.16;;;27.70;30.90
58759;BME280;46777;47.482;19.054;2022-08-11T17:17:05;100570.09;;;27.09;31.46
58759;BME280;46777;47.482;19.054;2022-08-11T17:19:53;100577.66;;;26.63;32.79
58759;BME280;46777;47.482;19.054;2022-08-11T17:22:40;100581.53;;;26.59;33.00
58759;BME280;46777;47.482;19.054;2022-08-11T17:25:45;100592.81;;;26.24;33.66
58759;BME280;46777;47.482;19.054;2022-08-11T17:28:33;100595.88;;;26.32;34.17
58759;BME280;46777;47.482;19.054;2022-08-11T17:31:20;100606.00;;;26.42;33.88
58759;BME280;46777;47.482;19.054;2022-08-11T17:34:23;100598.84;;;26.55;33.77
58759;BME280;46777;47.482;19.054;2022-08-11T17:37:31;100612.22;;;26.29;34.45
58759;BME280;46777;47.482;19.054;2022-08-11T17:40:20;100619.88;;;26.36;34.14
58759;BME280;46777;47.482;19.054;2022-08-11T17:43:08;100618.22;;;25.91;34.53
58759;BME280;46777;47.482;19.054;2022-08-11T17:46:13;100621.84;;;26.19;34.51
58759;BME280;46777;47.482;19.054;2022-08-11T17:49:18;100630.88;;;26.18;34.36
58759;BME280;46777;47.482;19.054;2022-08-11T17:52:05;100638.13;;;26.03;34.31
58759;BME280;46777;47.482;19.054;2022-08-11T17:55:09;100641.88;;;25.86;34.98